This is the latest recevied weather packets stored in our database for station/object AA7VG. If no packets are shown the sender has not sent any weather packets the latest 10 day(s).
| Time | Temp. | Humidity | Pressure | Rain* | Wind** | Luminosity | Snow |
|---|---|---|---|---|---|---|---|
| 1777646731 | 8.89° C | 46% | 1021.6 hPa | 0 mm | - | - | - |
| 1777646426 | 8.33° C | 46% | 1021.3 hPa | 0 mm | - | - | - |
| 1777646123 | 7.78° C | 49% | 1021.7 hPa | 0 mm | - | - | - |
| 1777645821 | 7.78° C | 50% | 1021.5 hPa | 0 mm | - | - | - |
| 1777645518 | 7.78° C | 48% | 1021.6 hPa | 0 mm | - | - | - |
| 1777645213 | 7.22° C | 50% | 1021.8 hPa | 0 mm | - | - | - |
| 1777644909 | 7.22° C | 51% | 1022 hPa | 0 mm | - | - | - |
| 1777644608 | 6.67° C | 52% | 1021.7 hPa | 0 mm | - | - | - |
| 1777644303 | 6.11° C | 53% | 1021.5 hPa | 0 mm | - | - | - |
| 1777643999 | 6.11° C | 53% | 1021.5 hPa | 0 mm | - | - | - |
| 1777643696 | 5.56° C | 54% | 1021.7 hPa | 0 mm | - | - | - |
| 1777643394 | 5.56° C | 53% | 1021.8 hPa | 0 mm | - | - | - |
| 1777643090 | 5° C | 55% | 1021.8 hPa | 0 mm | - | - | - |
| 1777642787 | 5° C | 55% | 1021.7 hPa | 0 mm | - | - | - |
| 1777642484 | 5° C | 56% | 1021.6 hPa | 0 mm | - | - | - |
| 1777642180 | 4.44° C | 58% | 1021.5 hPa | 0 mm | - | - | - |
| 1777641878 | 3.89° C | 60% | 1021.6 hPa | 0 mm | - | - | - |
| 1777641578 | 2.78° C | 63% | 1021.5 hPa | 0 mm | - | - | - |
| 1777641278 | 2.22° C | 64% | 1021.5 hPa | 0 mm | - | - | - |
| 1777640974 | 2.22° C | 66% | 1021.5 hPa | 0 mm | - | - | - |
| 1777640671 | 1.11° C | 70% | 1021.3 hPa | 0 mm | - | - | - |
| 1777640367 | 0.56° C | 73% | 1021.5 hPa | 0 mm | - | - | - |
| 1777640064 | 0° C | 73% | 1021.2 hPa | 0 mm | - | - | - |
| 1777639761 | -0.56° C | 76% | 1021.1 hPa | 0 mm | - | - | - |
| 1777639459 | -0.56° C | 76% | 1021.3 hPa | 0 mm | - | - | - |
* Rain latest hour (hover to see other rain measurements)
** Current wind speed in m/s (hover to see current wind gust speed)